createdAt,value
2022-11-19T00:02:07.704Z,101167.16
2022-11-19T00:04:37.316Z,101163.59
2022-11-19T00:07:05.585Z,101166.47
2022-11-19T00:09:34.015Z,101167.41
2022-11-19T00:12:19.802Z,101170.16
2022-11-19T00:14:47.830Z,101167.81
2022-11-19T00:17:16.093Z,101165.19
2022-11-19T00:19:45.616Z,101161.88
2022-11-19T00:22:13.795Z,101165.44
2022-11-19T00:24:41.937Z,101157.03
2022-11-19T00:27:10.002Z,101165.59
2022-11-19T00:29:38.086Z,101165.81
2022-11-19T00:32:06.497Z,101172.03
2022-11-19T00:34:34.622Z,101174.84
2022-11-19T00:37:04.119Z,101175.56
2022-11-19T00:39:32.188Z,101176.63
2022-11-19T00:42:00.374Z,101173.31
2022-11-19T00:44:32.572Z,101175.09
2022-11-19T00:47:03.901Z,101174.16
2022-11-19T00:49:32.071Z,101178.66
2022-11-19T00:52:00.147Z,101188.16
2022-11-19T00:54:29.742Z,101187.34
2022-11-19T00:56:58.069Z,101191.88
2022-11-19T00:59:26.225Z,101195.47
2022-11-19T01:01:54.548Z,101191.28
2022-11-19T01:04:22.773Z,101200.25
2022-11-19T01:06:50.925Z,101203.78
2022-11-19T01:09:19.435Z,101199.38
2022-11-19T01:11:49.180Z,101202.00
2022-11-19T01:14:17.384Z,101206.41
2022-11-19T01:16:45.425Z,101213.41
2022-11-19T01:19:16.587Z,101212.59
2022-11-19T01:21:45.068Z,101205.72
2022-11-19T01:24:13.207Z,101203.09
2022-11-19T01:26:45.541Z,101199.66
2022-11-19T01:29:15.616Z,101203.22
2022-11-19T01:31:43.776Z,101208.56
2022-11-19T01:34:11.995Z,101212.13
2022-11-19T01:36:40.123Z,101224.38
2022-11-19T01:39:08.321Z,101217.50
2022-11-19T01:41:36.481Z,101206.78
2022-11-19T01:44:06.095Z,101207.03
2022-11-19T01:46:37.341Z,101211.44
2022-11-19T01:49:08.385Z,101207.03
2022-11-19T01:51:39.316Z,101212.50
2022-11-19T01:54:22.789Z,101224.63
2022-11-19T01:56:51.011Z,101215.34
2022-11-19T01:59:20.783Z,101195.28
2022-11-19T02:01:50.923Z,101191.81
2022-11-19T02:04:20.385Z,101191.81
2022-11-19T02:06:49.420Z,101198.97
2022-11-19T02:09:17.935Z,101205.03
2022-11-19T02:12:08.922Z,101218.25
2022-11-19T02:15:09.777Z,101223.56
2022-11-19T02:17:56.899Z,101242.00
2022-11-19T02:20:56.730Z,101240.34
2022-11-19T02:23:50.939Z,101233.47
2022-11-19T02:26:58.572Z,101231.78
2022-11-19T02:30:03.107Z,101221.31
2022-11-19T02:32:34.789Z,101214.44
2022-11-19T02:35:13.034Z,101225.88
2022-11-19T02:37:45.943Z,101219.81
2022-11-19T02:40:20.613Z,101213.03
2022-11-19T02:42:55.898Z,101221.59
2022-11-19T02:45:31.650Z,101216.47
2022-11-19T02:48:04.766Z,101224.56
2022-11-19T02:50:36.898Z,101230.88
2022-11-19T02:53:06.154Z,101231.81
2022-11-19T02:55:40.756Z,101227.44
2022-11-19T02:58:32.408Z,101219.72
2022-11-19T03:01:22.407Z,101204.16
2022-11-19T03:04:09.047Z,101216.38
2022-11-19T03:06:37.589Z,101219.25
2022-11-19T03:09:05.910Z,101215.00
2022-11-19T03:11:34.554Z,101213.31
2022-11-19T03:14:44.219Z,101213.31
2022-11-19T03:17:21.301Z,101216.88
2022-11-19T03:19:57.545Z,101222.34
2022-11-19T03:22:30.454Z,101218.06
2022-11-19T03:25:03.403Z,101213.78
2022-11-19T03:27:36.898Z,101215.72
2022-11-19T03:30:06.802Z,101226.16
2022-11-19T03:32:42.250Z,101212.16
2022-11-19T03:35:14.968Z,101208.81
2022-11-19T03:37:46.217Z,101216.78
2022-11-19T03:40:17.746Z,101214.28
2022-11-19T03:42:49.661Z,101221.41
2022-11-19T03:45:21.186Z,101230.19
2022-11-19T03:47:51.303Z,101226.88
2022-11-19T03:50:26.411Z,101229.50
2022-11-19T03:52:56.147Z,101235.78
2022-11-19T03:55:32.475Z,101241.84
2022-11-19T03:58:04.489Z,101236.75
2022-11-19T04:00:32.636Z,101230.44
2022-11-19T04:03:02.375Z,101238.41
2022-11-19T04:05:31.090Z,101249.69
2022-11-19T04:07:59.208Z,101258.34
2022-11-19T04:10:27.354Z,101260.38
2022-11-19T04:12:55.455Z,101260.63
2022-11-19T04:15:23.541Z,101252.91
2022-11-19T04:17:51.655Z,101256.22
2022-11-19T04:20:21.240Z,101243.28
2022-11-19T04:22:52.233Z,101249.44
2022-11-19T04:25:20.466Z,101251.34
2022-11-19T04:27:48.741Z,101256.69
2022-11-19T04:30:17.634Z,101256.81
2022-11-19T04:32:45.772Z,101264.63
2022-11-19T04:35:14.471Z,101259.53
2022-11-19T04:37:45.476Z,101256.22
2022-11-19T04:40:14.685Z,101254.66
2022-11-19T04:42:42.824Z,101262.63
2022-11-19T04:45:11.800Z,101256.59
2022-11-19T04:47:40.060Z,101246.13
2022-11-19T04:50:09.413Z,101249.69
2022-11-19T04:52:40.765Z,101248.97
2022-11-19T04:55:12.029Z,101250.75
2022-11-19T04:57:40.163Z,101251.81
2022-11-19T05:00:09.762Z,101251.94
2022-11-19T05:02:37.817Z,101249.56
2022-11-19T05:05:06.608Z,101257.50
2022-11-19T05:07:34.902Z,101256.81
2022-11-19T05:10:03.197Z,101271.75
2022-11-19T05:12:32.653Z,101265.69
2022-11-19T05:15:00.806Z,101263.22
2022-11-19T05:17:28.988Z,101260.59
2022-11-19T05:19:59.614Z,101266.78
2022-11-19T05:22:27.839Z,101266.06
2022-11-19T05:24:56.065Z,101260.81
2022-11-19T05:27:24.229Z,101268.66
2022-11-19T05:29:53.841Z,101264.28
2022-11-19T05:32:22.001Z,101268.66
2022-11-19T05:34:50.207Z,101265.94
2022-11-19T05:37:18.338Z,101265.09
2022-11-19T05:39:46.482Z,101265.09
2022-11-19T05:42:14.644Z,101280.75
2022-11-19T05:44:42.732Z,101276.63
2022-11-19T05:47:12.167Z,101281.84
2022-11-19T05:49:40.324Z,101277.56
2022-11-19T05:52:08.591Z,101280.41
2022-11-19T05:54:36.636Z,101274.34
2022-11-19T05:57:05.712Z,101277.91
2022-11-19T05:59:33.913Z,101276.22
2022-11-19T06:02:02.024Z,101278.84
2022-11-19T06:04:31.492Z,101281.44
2022-11-19T06:06:59.684Z,101275.31
2022-11-19T06:09:27.870Z,101271.00
2022-11-19T06:11:56.019Z,101266.75
2022-11-19T06:14:26.099Z,101258.91
2022-11-19T06:16:56.170Z,101254.66
2022-11-19T06:19:24.898Z,101253.00
2022-11-19T06:21:54.899Z,101253.09
2022-11-19T06:24:23.204Z,101254.03
2022-11-19T06:26:51.626Z,101257.75
2022-11-19T06:29:20.762Z,101260.44
2022-11-19T06:31:49.181Z,101255.34
2022-11-19T06:34:17.273Z,101262.34
2022-11-19T06:36:50.269Z,101258.91
2022-11-19T06:39:20.615Z,101261.63
2022-11-19T06:41:49.669Z,101264.22
2022-11-19T06:44:18.046Z,101260.09
2022-11-19T06:46:46.181Z,101264.56
2022-11-19T06:49:19.726Z,101261.13
2022-11-19T06:51:48.340Z,101260.31
2022-11-19T06:54:16.457Z,101252.47
2022-11-19T06:56:46.096Z,101249.88
2022-11-19T06:59:14.312Z,101243.81
2022-11-19T07:01:42.492Z,101244.91
2022-11-19T07:04:11.579Z,101244.03
2022-11-19T07:06:39.702Z,101247.59
2022-11-19T07:09:07.991Z,101245.81
2022-11-19T07:11:36.102Z,101234.47
2022-11-19T07:14:05.540Z,101237.16
2022-11-19T07:16:35.618Z,101239.91
2022-11-19T07:19:05.683Z,101237.41
2022-11-19T07:21:34.382Z,101234.19
2022-11-19T07:24:06.620Z,101232.53
2022-11-19T07:26:35.945Z,101241.28
2022-11-19T07:29:07.514Z,101238.81
2022-11-19T07:31:36.068Z,101252.41
2022-11-19T07:34:07.655Z,101247.66
2022-11-19T07:36:36.282Z,101243.41
2022-11-19T07:39:04.937Z,101249.44
2022-11-19T07:41:50.449Z,101242.44
2022-11-19T07:44:20.123Z,101239.97
2022-11-19T07:46:48.272Z,101241.00
2022-11-19T07:49:16.567Z,101243.72
2022-11-19T07:51:44.920Z,101239.47
2022-11-19T07:54:14.298Z,101234.00
2022-11-19T07:56:42.506Z,101232.59
2022-11-19T07:59:10.645Z,101225.47
2022-11-19T08:01:40.279Z,101224.44
2022-11-19T08:04:08.466Z,101216.59
2022-11-19T08:06:36.815Z,101223.34
2022-11-19T08:09:06.684Z,101221.44
2022-11-19T08:11:34.822Z,101216.25
2022-11-19T08:14:03.105Z,101215.78
2022-11-19T08:16:51.121Z,101212.00
2022-11-19T08:19:20.882Z,101211.66
2022-11-19T08:21:49.556Z,101207.88
2022-11-19T08:24:20.871Z,101209.41
2022-11-19T08:26:49.708Z,101209.06
2022-11-19T08:29:20.341Z,101207.91
2022-11-19T08:31:49.737Z,101206.94
2022-11-19T08:34:18.520Z,101198.16
2022-11-19T08:36:48.274Z,101195.19
2022-11-19T08:39:16.401Z,101202.19
2022-11-19T08:42:03.909Z,101201.84
2022-11-19T08:44:31.978Z,101198.88
2022-11-19T08:47:00.055Z,101196.03
2022-11-19T08:49:28.111Z,101196.66
2022-11-19T08:51:58.515Z,101201.63
2022-11-19T08:54:26.584Z,101197.94
2022-11-19T08:56:54.995Z,101195.06
2022-11-19T08:59:23.253Z,101197.47
2022-11-19T09:01:51.429Z,101190.31
2022-11-19T09:04:19.954Z,101197.34
2022-11-19T09:06:48.317Z,101189.41
2022-11-19T09:09:18.043Z,101190.94
2022-11-19T09:11:46.179Z,101191.66
2022-11-19T09:14:14.348Z,101193.31
2022-11-19T09:16:42.627Z,101192.81
2022-11-19T09:19:10.855Z,101191.75
2022-11-19T09:21:39.057Z,101189.63
2022-11-19T09:24:07.877Z,101191.97
2022-11-19T09:26:37.521Z,101184.72
2022-11-19T09:29:05.629Z,101188.63
2022-11-19T09:31:33.840Z,101176.06
2022-11-19T09:34:02.046Z,101164.16
2022-11-19T09:36:30.194Z,101167.00
2022-11-19T09:38:59.355Z,101157.69
2022-11-19T09:41:44.758Z,101159.31
2022-11-19T09:44:29.430Z,101152.38
2022-11-19T09:47:05.665Z,101148.75
2022-11-19T09:49:39.605Z,101141.09
2022-11-19T09:52:13.484Z,101134.56
2022-11-19T09:54:46.040Z,101135.94
2022-11-19T09:57:21.519Z,101133.81
2022-11-19T09:59:53.211Z,101130.22
2022-11-19T10:02:23.231Z,101115.50
2022-11-19T10:04:52.450Z,101108.47
2022-11-19T10:07:30.224Z,101098.84
2022-11-19T10:10:13.228Z,101097.63
2022-11-19T10:13:11.999Z,101087.22
2022-11-19T10:15:51.199Z,101087.09
2022-11-19T10:18:27.042Z,101095.25
2022-11-19T10:21:03.204Z,101088.53
2022-11-19T10:23:45.704Z,101092.56
2022-11-19T10:26:16.399Z,101093.97
2022-11-19T10:28:52.789Z,101088.56
2022-11-19T10:31:29.501Z,101090.94
2022-11-19T10:34:03.803Z,101082.25
2022-11-19T10:36:38.053Z,101088.31
2022-11-19T10:39:12.057Z,101091.63
2022-11-19T10:41:46.445Z,101087.22
2022-11-19T10:44:40.487Z,101085.31
2022-11-19T10:47:13.958Z,101077.31
2022-11-19T10:49:43.837Z,101075.38
2022-11-19T10:52:24.474Z,101069.06
2022-11-19T10:54:56.535Z,101073.22
2022-11-19T10:57:25.938Z,101067.69
2022-11-19T10:59:56.234Z,101061.38
2022-11-19T11:02:31.965Z,101052.69
2022-11-19T11:05:08.301Z,101045.75
2022-11-19T11:07:56.495Z,101042.31
2022-11-19T11:10:46.625Z,101024.81
2022-11-19T11:13:59.326Z,101014.34
2022-11-19T11:16:44.079Z,101005.66
2022-11-19T11:19:19.429Z,100998.34
2022-11-19T11:21:53.300Z,100989.41
2022-11-19T11:24:22.649Z,100970.94
2022-11-19T11:27:22.614Z,100968.72
2022-11-19T11:29:50.839Z,100964.06
2022-11-19T11:32:30.824Z,100961.03
2022-11-19T11:35:03.494Z,100957.00
2022-11-19T11:37:34.953Z,100957.56
2022-11-19T11:40:03.112Z,100949.56
2022-11-19T11:42:32.658Z,100944.72
2022-11-19T11:45:02.977Z,100930.66
2022-11-19T11:47:36.009Z,100938.38
2022-11-19T11:50:09.679Z,100946.66
2022-11-19T11:52:42.081Z,100941.13
2022-11-19T11:55:17.205Z,100937.56
2022-11-19T11:57:55.401Z,100933.66
2022-11-19T12:00:34.373Z,100932.56
2022-11-19T12:03:05.146Z,100931.59
2022-11-19T12:05:45.370Z,100925.91
2022-11-19T12:08:27.523Z,100914.03
2022-11-19T12:11:03.064Z,100912.34
2022-11-19T12:14:05.402Z,100915.25
2022-11-19T12:16:46.019Z,100920.56
2022-11-19T12:19:41.290Z,100919.19
2022-11-19T12:22:19.061Z,100931.88
2022-11-19T12:25:08.699Z,100926.06
2022-11-19T12:27:43.156Z,100923.81
2022-11-19T12:30:18.423Z,100915.66
2022-11-19T12:33:08.266Z,100911.25
2022-11-19T12:35:46.247Z,100911.09
2022-11-19T12:38:26.214Z,100901.25
2022-11-19T12:41:08.610Z,100907.34
2022-11-19T12:43:50.464Z,100903.88
2022-11-19T12:46:29.428Z,100898.63
2022-11-19T12:49:48.715Z,100899.50
2022-11-19T12:52:50.386Z,100894.53
2022-11-19T12:55:26.619Z,100888.28
2022-11-19T12:58:01.851Z,100888.44
2022-11-19T13:00:34.594Z,100875.47
2022-11-19T13:03:14.994Z,100874.25
2022-11-19T13:05:51.514Z,100867.91
2022-11-19T13:08:27.666Z,100873.28
2022-11-19T13:11:05.938Z,100874.13
2022-11-19T13:13:36.785Z,100870.53
2022-11-19T13:16:10.277Z,100853.81
2022-11-19T13:18:44.242Z,100847.59
2022-11-19T13:21:22.382Z,100851.72
2022-11-19T13:23:52.060Z,100845.66
2022-11-19T13:26:24.501Z,100839.28
2022-11-19T13:28:56.546Z,100833.19
2022-11-19T13:31:31.322Z,100826.97
2022-11-19T13:34:04.097Z,100826.03
2022-11-19T13:36:36.937Z,100821.59
2022-11-19T13:39:15.277Z,100822.25
2022-11-19T13:42:02.172Z,100820.47
2022-11-19T13:44:42.488Z,100808.97
2022-11-19T13:47:16.742Z,100804.44
2022-11-19T13:49:51.288Z,100797.38
2022-11-19T13:52:27.353Z,100803.59
2022-11-19T13:54:57.969Z,100798.66
2022-11-19T13:57:30.618Z,100789.78
2022-11-19T14:00:02.629Z,100787.03
2022-11-19T14:03:09.189Z,100775.84
2022-11-19T14:06:00.515Z,100776.84
2022-11-19T14:08:51.368Z,100766.34
2022-11-19T14:11:54.291Z,100759.00
2022-11-19T14:14:54.085Z,100758.41
2022-11-19T14:17:49.074Z,100747.16
2022-11-19T14:20:53.417Z,100753.88
2022-11-19T14:24:03.974Z,100744.38
2022-11-19T14:27:23.457Z,100739.94
2022-11-19T14:29:57.754Z,100726.81
2022-11-19T14:32:35.918Z,100721.72
2022-11-19T14:35:40.061Z,100717.31
2022-11-19T14:38:35.368Z,100707.09
2022-11-19T14:41:33.110Z,100715.97
2022-11-19T14:44:32.179Z,100705.75
2022-11-19T14:47:35.190Z,100710.50
2022-11-19T14:50:08.277Z,100713.25
2022-11-19T14:52:39.902Z,100708.00
2022-11-19T14:55:21.896Z,100707.19
2022-11-19T14:57:59.529Z,100711.63
2022-11-19T15:00:32.294Z,100704.72
2022-11-19T15:03:03.193Z,100697.84
2022-11-19T15:05:34.693Z,100703.09
2022-11-19T15:08:20.939Z,100691.59
2022-11-19T15:11:05.512Z,100681.13
2022-11-19T15:13:35.744Z,100691.28
2022-11-19T15:16:09.648Z,100680.78
2022-11-19T15:19:20.807Z,100682.75
2022-11-19T15:22:18.879Z,100678.31
2022-11-19T15:25:12.423Z,100666.03
2022-11-19T15:27:58.067Z,100657.50
2022-11-19T15:30:39.247Z,100659.31
2022-11-19T15:33:41.193Z,100655.00
2022-11-19T15:36:16.385Z,100643.69
2022-11-19T15:38:49.315Z,100652.25
2022-11-19T15:41:24.186Z,100641.75
2022-11-19T15:43:55.960Z,100645.38
2022-11-19T15:46:34.385Z,100642.06
2022-11-19T15:49:12.073Z,100635.16
2022-11-19T15:51:58.528Z,100627.47
2022-11-19T15:54:31.054Z,100621.38
2022-11-19T15:57:01.947Z,100615.28
2022-11-19T15:59:31.209Z,100619.72
2022-11-19T16:02:03.012Z,100605.94
2022-11-19T16:04:36.909Z,100605.94
2022-11-19T16:07:07.168Z,100612.31
2022-11-19T16:09:36.290Z,100612.31
2022-11-19T16:12:21.835Z,100605.41
2022-11-19T16:15:10.766Z,100589.69
2022-11-19T16:17:47.213Z,100589.69
2022-11-19T16:20:22.065Z,100583.63
2022-11-19T16:22:56.144Z,100569.00
2022-11-19T16:25:35.476Z,100578.66
2022-11-19T16:28:07.625Z,100572.31
2022-11-19T16:30:46.387Z,100561.28
2022-11-19T16:33:19.950Z,100560.16
2022-11-19T16:35:52.939Z,100548.84
2022-11-19T16:38:28.118Z,100545.53
2022-11-19T16:41:15.599Z,100540.31
2022-11-19T16:43:48.638Z,100542.91
2022-11-19T16:46:20.370Z,100549.16
2022-11-19T16:48:56.917Z,100539.78
2022-11-19T16:51:52.685Z,100535.69
2022-11-19T16:54:46.693Z,100530.28
2022-11-19T16:57:17.850Z,100527.81
2022-11-19T16:59:49.916Z,100527.81
2022-11-19T17:02:20.771Z,100530.28
2022-11-19T17:04:50.898Z,100530.44
2022-11-19T17:07:27.462Z,100535.00
2022-11-19T17:10:10.731Z,100527.97
2022-11-19T17:12:50.393Z,100530.72
2022-11-19T17:15:36.948Z,100523.84
2022-11-19T17:18:19.288Z,100533.69
2022-11-19T17:20:58.094Z,100532.69
2022-11-19T17:23:30.161Z,100523.19
2022-11-19T17:26:00.546Z,100537.13
2022-11-19T17:28:36.180Z,100528.56
2022-11-19T17:31:08.466Z,100520.88
2022-11-19T17:33:37.532Z,100522.81
2022-11-19T17:36:13.634Z,100511.50
2022-11-19T17:38:43.336Z,100515.63
2022-11-19T17:41:15.454Z,100515.78
2022-11-19T17:44:01.328Z,100516.75
2022-11-19T17:46:30.686Z,100504.63
2022-11-19T17:48:58.784Z,100498.53
2022-11-19T17:51:27.905Z,100499.38
2022-11-19T17:53:57.997Z,100490.84
2022-11-19T17:56:28.007Z,100479.38
2022-11-19T17:58:56.726Z,100475.13
2022-11-19T18:01:24.992Z,100475.94
2022-11-19T18:03:53.305Z,100461.84
2022-11-19T18:06:21.530Z,100473.97
2022-11-19T18:08:49.699Z,100464.47
2022-11-19T18:11:21.437Z,100461.03
2022-11-19T18:13:52.922Z,100443.31
2022-11-19T18:16:22.094Z,100435.31
2022-11-19T18:18:50.846Z,100435.31
2022-11-19T18:21:21.490Z,100422.84
2022-11-19T18:23:51.225Z,100421.88
2022-11-19T18:26:23.727Z,100420.22
2022-11-19T18:28:52.160Z,100403.50
2022-11-19T18:31:22.748Z,100398.13
2022-11-19T18:33:51.159Z,100385.84
2022-11-19T18:36:19.734Z,100392.72
2022-11-19T18:38:48.596Z,100383.06
2022-11-19T18:41:18.979Z,100382.22
2022-11-19T18:44:06.406Z,100378.50
2022-11-19T18:46:34.830Z,100374.19
2022-11-19T18:49:03.107Z,100376.69
2022-11-19T18:51:33.066Z,100372.25
2022-11-19T18:54:01.324Z,100369.28
2022-11-19T18:56:29.657Z,100356.19
2022-11-19T18:59:04.484Z,100357.00
2022-11-19T19:01:33.454Z,100352.59
2022-11-19T19:04:02.099Z,100344.56
2022-11-19T19:06:30.437Z,100337.69
2022-11-19T19:08:58.789Z,100337.69
2022-11-19T19:11:43.922Z,100341.25
2022-11-19T19:14:13.676Z,100333.41
2022-11-19T19:16:41.887Z,100337.69
2022-11-19T19:19:11.501Z,100328.00
2022-11-19T19:21:39.695Z,100327.19
2022-11-19T19:24:08.429Z,100326.84
2022-11-19T19:26:36.671Z,100313.75
2022-11-19T19:29:05.956Z,100311.28
2022-11-19T19:31:35.797Z,100308.34
2022-11-19T19:34:04.029Z,100308.50
2022-11-19T19:36:32.360Z,100299.66
2022-11-19T19:39:00.614Z,100299.66
2022-11-19T19:41:29.245Z,100293.44
2022-11-19T19:44:00.710Z,100282.94
2022-11-19T19:46:28.678Z,100277.69
2022-11-19T19:48:58.701Z,100268.03
2022-11-19T19:51:28.482Z,100268.84
2022-11-19T19:53:57.050Z,100268.03
2022-11-19T19:56:27.086Z,100261.78
2022-11-19T19:58:55.705Z,100258.19
2022-11-19T20:01:26.165Z,100256.22
2022-11-19T20:03:55.211Z,100262.28
2022-11-19T20:06:24.943Z,100252.44
2022-11-19T20:08:53.295Z,100256.06
2022-11-19T20:11:24.639Z,100249.81
2022-11-19T20:13:53.087Z,100259.50
2022-11-19T20:16:22.812Z,100266.38
2022-11-19T20:18:52.092Z,100258.38
2022-11-19T20:21:22.618Z,100250.34
2022-11-19T20:23:53.508Z,100257.88
2022-11-19T20:26:24.392Z,100256.72
2022-11-19T20:28:56.534Z,100256.72
2022-11-19T20:31:25.162Z,100254.91
2022-11-19T20:33:55.351Z,100252.28
2022-11-19T20:36:24.643Z,100260.03
2022-11-19T20:38:54.920Z,100248.72
2022-11-19T20:41:40.751Z,100252.16
2022-11-19T20:44:24.258Z,100250.34
2022-11-19T20:46:53.949Z,100245.91
2022-11-19T20:49:24.732Z,100244.09
2022-11-19T20:51:53.170Z,100242.31
2022-11-19T20:54:23.897Z,100240.66
2022-11-19T20:56:53.740Z,100240.66
2022-11-19T20:59:22.901Z,100238.03
2022-11-19T21:01:51.839Z,100237.88
2022-11-19T21:04:20.602Z,100231.81
2022-11-19T21:06:49.962Z,100233.44
2022-11-19T21:09:19.816Z,100242.13
2022-11-19T21:11:49.811Z,100244.75
2022-11-19T21:14:17.840Z,100241.16
2022-11-19T21:16:46.080Z,100228.06
2022-11-19T21:19:14.542Z,100224.44
2022-11-19T21:21:43.263Z,100223.44
2022-11-19T21:24:11.623Z,100218.38
2022-11-19T21:26:40.693Z,100215.75
2022-11-19T21:29:10.321Z,100217.56
2022-11-19T21:31:44.553Z,100212.31
2022-11-19T21:34:14.601Z,100217.56
2022-11-19T21:36:44.229Z,100219.38
2022-11-19T21:39:14.076Z,100214.13
2022-11-19T21:41:42.334Z,100208.88
2022-11-19T21:44:15.481Z,100212.44
2022-11-19T21:46:47.897Z,100211.50
2022-11-19T21:49:16.165Z,100212.44
2022-11-19T21:51:44.472Z,100217.69
2022-11-19T21:54:12.762Z,100227.56
2022-11-19T21:56:40.951Z,100221.81
2022-11-19T21:59:09.172Z,100225.91
2022-11-19T22:01:38.731Z,100223.78
2022-11-19T22:04:07.154Z,100227.22
2022-11-19T22:06:35.481Z,100221.66
2022-11-19T22:09:03.512Z,100227.22
2022-11-19T22:11:32.168Z,100222.63
2022-11-19T22:14:02.837Z,100209.50
2022-11-19T22:16:32.072Z,100217.38
2022-11-19T22:19:01.632Z,100205.91
2022-11-19T22:21:30.357Z,100199.66
2022-11-19T22:23:58.922Z,100194.41
2022-11-19T22:26:27.403Z,100200.66
2022-11-19T22:28:55.801Z,100196.03
2022-11-19T22:31:24.451Z,100189.97
2022-11-19T22:33:53.897Z,100192.78
2022-11-19T22:36:24.390Z,100192.09
2022-11-19T22:38:53.722Z,100192.47
2022-11-19T22:41:23.185Z,100186.53
2022-11-19T22:43:51.920Z,100185.22
2022-11-19T22:46:21.168Z,100183.09
2022-11-19T22:48:49.797Z,100182.63
2022-11-19T22:51:20.206Z,100176.06
2022-11-19T22:53:50.762Z,100180.50
2022-11-19T22:56:21.151Z,100179.19
2022-11-19T22:58:50.273Z,100176.69
2022-11-19T23:01:20.602Z,100178.69
2022-11-19T23:03:48.809Z,100181.94
2022-11-19T23:06:17.797Z,100181.00
2022-11-19T23:08:46.243Z,100180.31
2022-11-19T23:11:37.353Z,100169.81
2022-11-19T23:14:04.696Z,100171.81
2022-11-19T23:16:32.948Z,100174.25
2022-11-19T23:19:01.252Z,100170.81
2022-11-19T23:21:30.599Z,100167.19
2022-11-19T23:23:59.947Z,100167.88
2022-11-19T23:26:31.879Z,100161.63
2022-11-19T23:29:00.235Z,100160.66
2022-11-19T23:31:29.963Z,100149.34
2022-11-19T23:33:59.717Z,100145.72
2022-11-19T23:36:29.705Z,100141.97
2022-11-19T23:38:57.960Z,100143.78
2022-11-19T23:41:26.286Z,100144.59
2022-11-19T23:43:57.298Z,100126.22
2022-11-19T23:46:27.133Z,100123.59
2022-11-19T23:48:57.152Z,100125.06
2022-11-19T23:51:28.002Z,100117.34
2022-11-19T23:53:56.687Z,100126.22
2022-11-19T23:56:26.543Z,100120.97
2022-11-19T23:58:56.268Z,100123.59
